createdAt,value
2022-08-17T00:01:22.536Z,99.90
2022-08-17T00:03:52.273Z,99.90
2022-08-17T00:06:19.968Z,99.90
2022-08-17T00:08:46.037Z,99.90
2022-08-17T00:11:13.732Z,99.90
2022-08-17T00:13:42.677Z,99.90
2022-08-17T00:16:14.465Z,99.90
2022-08-17T00:19:01.382Z,99.90
2022-08-17T00:21:25.474Z,99.90
2022-08-17T00:23:49.467Z,99.90
2022-08-17T00:26:14.303Z,99.90
2022-08-17T00:28:39.828Z,99.90
2022-08-17T00:31:03.949Z,99.90
2022-08-17T00:33:32.420Z,99.90
2022-08-17T00:35:57.836Z,99.90
2022-08-17T00:38:22.800Z,99.90
2022-08-17T00:40:50.387Z,99.90
2022-08-17T00:43:20.046Z,99.90
2022-08-17T00:45:45.035Z,99.90
2022-08-17T00:48:11.536Z,99.90
2022-08-17T00:51:01.229Z,99.90
2022-08-17T00:53:26.071Z,99.90
2022-08-17T00:55:50.437Z,99.90
2022-08-17T00:58:14.406Z,99.90
2022-08-17T01:00:43.162Z,99.90
2022-08-17T01:03:11.946Z,99.90
2022-08-17T01:05:42.183Z,99.90
2022-08-17T01:08:11.348Z,99.90
2022-08-17T01:10:59.736Z,99.90
2022-08-17T01:13:28.737Z,99.90
2022-08-17T01:15:58.663Z,99.90
2022-08-17T01:18:22.587Z,99.90
2022-08-17T01:20:52.408Z,99.90
2022-08-17T01:23:20.783Z,99.90
2022-08-17T01:25:45.476Z,99.90
2022-08-17T01:28:12.946Z,99.90
2022-08-17T01:30:59.519Z,99.90
2022-08-17T01:33:23.319Z,99.90
2022-08-17T01:35:47.108Z,99.90
2022-08-17T01:38:10.796Z,99.90
2022-08-17T01:40:39.726Z,99.90
2022-08-17T01:43:10.469Z,99.90
2022-08-17T01:45:40.620Z,99.90
2022-08-17T01:48:04.673Z,99.90
2022-08-17T01:50:35.012Z,99.90
2022-08-17T01:53:14.881Z,99.90
2022-08-17T01:55:47.519Z,99.90
2022-08-17T01:58:11.433Z,99.90
2022-08-17T02:00:59.630Z,99.90
2022-08-17T02:03:19.600Z,99.90
2022-08-17T02:05:43.306Z,99.90
2022-08-17T02:08:08.453Z,99.90
2022-08-17T02:10:46.819Z,99.90
2022-08-17T02:13:11.615Z,99.90
2022-08-17T02:15:35.892Z,99.90
2022-08-17T02:17:59.650Z,99.90
2022-08-17T02:20:41.585Z,99.90
2022-08-17T02:23:09.524Z,99.90
2022-08-17T02:25:35.140Z,99.90
2022-08-17T02:28:01.018Z,99.90
2022-08-17T02:30:59.578Z,99.90
2022-08-17T02:33:10.182Z,99.90
2022-08-17T02:35:33.980Z,99.90
2022-08-17T02:37:58.120Z,99.90
2022-08-17T02:40:36.003Z,99.90
2022-08-17T02:43:02.171Z,99.90
2022-08-17T02:45:28.074Z,99.90
2022-08-17T02:47:53.120Z,99.90
2022-08-17T02:50:20.279Z,99.90
2022-08-17T02:52:47.474Z,99.90
2022-08-17T02:55:28.941Z,99.90
2022-08-17T02:57:53.247Z,99.90
2022-08-17T03:00:28.854Z,99.90
2022-08-17T03:02:53.521Z,99.90
2022-08-17T03:05:20.141Z,99.90
2022-08-17T03:07:44.106Z,99.90
2022-08-17T03:10:09.524Z,99.90
2022-08-17T03:12:39.281Z,99.90
2022-08-17T03:15:05.975Z,99.90
2022-08-17T03:17:31.250Z,99.90
2022-08-17T03:19:54.960Z,99.90
2022-08-17T03:22:35.528Z,99.90
2022-08-17T03:25:02.561Z,99.90
2022-08-17T03:27:27.735Z,99.90
2022-08-17T03:29:51.561Z,99.90
2022-08-17T03:32:17.935Z,99.90
2022-08-17T03:34:43.479Z,99.90
2022-08-17T03:37:07.266Z,99.90
2022-08-17T03:39:31.295Z,99.90
2022-08-17T03:41:55.164Z,99.90
2022-08-17T03:44:18.984Z,99.90
2022-08-17T03:47:00.059Z,99.90
2022-08-17T03:49:41.340Z,99.90
2022-08-17T03:52:24.017Z,99.90
2022-08-17T03:55:05.591Z,99.90
2022-08-17T03:57:30.257Z,99.90
2022-08-17T03:59:54.785Z,99.90
2022-08-17T04:02:22.995Z,99.90
2022-08-17T04:04:47.089Z,99.90
2022-08-17T04:07:12.669Z,99.90
2022-08-17T04:09:37.816Z,99.90
2022-08-17T04:12:04.550Z,99.90
2022-08-17T04:14:31.309Z,99.90
2022-08-17T04:16:55.308Z,99.90
2022-08-17T04:19:19.169Z,99.90
2022-08-17T04:21:43.110Z,99.90
2022-08-17T04:24:08.976Z,99.90
2022-08-17T04:26:53.232Z,99.90
2022-08-17T04:29:18.040Z,99.90
2022-08-17T04:31:41.877Z,99.90
2022-08-17T04:34:05.837Z,99.90
2022-08-17T04:36:29.748Z,99.90
2022-08-17T04:38:53.565Z,99.90
2022-08-17T04:41:36.428Z,99.90
2022-08-17T04:44:00.992Z,99.90
2022-08-17T04:46:27.735Z,99.90
2022-08-17T04:48:55.923Z,99.90
2022-08-17T04:51:24.005Z,99.90
2022-08-17T04:53:54.203Z,99.90
2022-08-17T04:56:20.369Z,99.90
2022-08-17T04:58:44.685Z,99.90
2022-08-17T05:01:09.106Z,99.90
2022-08-17T05:03:33.595Z,99.90
2022-08-17T05:05:57.598Z,99.90
2022-08-17T05:08:23.104Z,99.90
2022-08-17T05:10:47.229Z,99.90
2022-08-17T05:13:16.732Z,99.90
2022-08-17T05:15:45.143Z,99.90
2022-08-17T05:18:11.733Z,99.90
2022-08-17T05:20:37.070Z,99.90
2022-08-17T05:23:04.721Z,99.90
2022-08-17T05:25:36.173Z,99.90
2022-08-17T05:28:02.119Z,99.90
2022-08-17T05:30:28.578Z,99.90
2022-08-17T05:32:54.800Z,99.90
2022-08-17T05:35:18.841Z,99.90
2022-08-17T05:37:42.682Z,99.90
2022-08-17T05:40:08.735Z,99.90
2022-08-17T05:42:32.741Z,99.90
2022-08-17T05:44:59.576Z,99.90
2022-08-17T05:47:26.598Z,99.90
2022-08-17T05:49:50.370Z,99.90
2022-08-17T05:52:30.052Z,99.90
2022-08-17T05:55:08.150Z,99.90
2022-08-17T05:57:52.877Z,99.90
2022-08-17T06:00:26.264Z,99.90
2022-08-17T06:03:16.365Z,99.90
2022-08-17T06:06:06.195Z,99.90
2022-08-17T06:08:39.584Z,99.90
2022-08-17T06:11:13.026Z,99.90
2022-08-17T06:13:56.208Z,99.90
2022-08-17T06:16:33.309Z,99.90
2022-08-17T06:19:05.148Z,99.90
2022-08-17T06:21:34.599Z,99.90
2022-08-17T06:24:23.952Z,99.90
2022-08-17T06:26:48.077Z,99.90
2022-08-17T06:29:24.944Z,99.90
2022-08-17T06:31:49.068Z,99.90
2022-08-17T06:34:15.048Z,99.90
2022-08-17T06:36:50.914Z,99.90
2022-08-17T06:39:39.004Z,99.90
2022-08-17T06:43:00.818Z,99.90
2022-08-17T06:45:09.848Z,99.90
2022-08-17T06:47:38.933Z,99.90
2022-08-17T06:50:14.720Z,99.90
2022-08-17T06:52:49.948Z,99.90
2022-08-17T06:55:20.307Z,99.90
2022-08-17T06:57:47.695Z,99.90
2022-08-17T07:00:18.120Z,99.90
2022-08-17T07:02:52.657Z,99.90
2022-08-17T07:05:22.466Z,99.90
2022-08-17T07:08:04.672Z,99.90
2022-08-17T07:10:32.951Z,99.90
2022-08-17T07:13:02.316Z,99.80
2022-08-17T07:15:34.081Z,99.90
2022-08-17T07:17:59.755Z,99.90
2022-08-17T07:20:25.381Z,97.70
2022-08-17T07:23:00.129Z,99.80
2022-08-17T07:25:24.433Z,99.00
2022-08-17T07:27:52.599Z,96.80
2022-08-17T07:30:20.512Z,96.40
2022-08-17T07:32:48.206Z,95.30
2022-08-17T07:35:22.098Z,95.40
2022-08-17T07:37:53.208Z,97.50
2022-08-17T07:40:32.126Z,95.70
2022-08-17T07:43:26.446Z,95.10
2022-08-17T07:46:26.540Z,95.60
2022-08-17T07:48:53.616Z,96.20
2022-08-17T07:51:27.056Z,94.90
2022-08-17T07:53:52.528Z,95.40
2022-08-17T07:56:37.889Z,95.20
2022-08-17T07:59:12.244Z,95.20
2022-08-17T08:01:39.592Z,96.60
2022-08-17T08:04:59.080Z,95.80
2022-08-17T08:07:25.965Z,94.80
2022-08-17T08:10:07.652Z,94.70
2022-08-17T08:12:36.322Z,95.50
2022-08-17T08:15:03.849Z,95.60
2022-08-17T08:17:35.710Z,95.50
2022-08-17T08:20:01.357Z,95.20
2022-08-17T08:23:04.908Z,96.00
2022-08-17T08:25:45.483Z,94.30
2022-08-17T08:28:25.636Z,94.10
2022-08-17T08:30:54.999Z,93.50
2022-08-17T08:33:39.925Z,93.10
2022-08-17T08:37:12.610Z,94.80
2022-08-17T08:39:10.744Z,93.80
2022-08-17T08:41:44.912Z,93.20
2022-08-17T08:45:00.677Z,93.10
2022-08-17T08:47:22.192Z,90.80
2022-08-17T08:50:37.701Z,90.50
2022-08-17T08:53:30.868Z,91.60
2022-08-17T08:56:00.361Z,92.10
2022-08-17T08:58:42.333Z,91.80
2022-08-17T09:01:16.661Z,91.80
2022-08-17T09:04:23.403Z,92.60
2022-08-17T09:07:03.461Z,92.20
2022-08-17T09:09:37.398Z,91.40
2022-08-17T09:12:08.072Z,92.10
2022-08-17T09:14:45.152Z,91.10
2022-08-17T09:17:18.313Z,90.70
2022-08-17T09:19:48.159Z,90.00
2022-08-17T09:22:23.969Z,88.90
2022-08-17T09:24:54.715Z,90.20
2022-08-17T09:27:22.198Z,90.90
2022-08-17T09:29:53.188Z,90.00
2022-08-17T09:32:21.913Z,92.30
2022-08-17T09:34:52.759Z,90.70
2022-08-17T09:37:25.702Z,90.40
2022-08-17T09:40:00.337Z,90.50
2022-08-17T09:42:31.483Z,88.30
2022-08-17T09:45:10.835Z,89.50
2022-08-17T09:47:45.582Z,91.40
2022-08-17T09:50:14.916Z,90.30
2022-08-17T09:52:39.289Z,87.60
2022-08-17T09:55:03.820Z,90.30
2022-08-17T09:57:49.467Z,89.00
2022-08-17T10:00:25.237Z,89.80
2022-08-17T10:03:28.440Z,83.80
2022-08-17T10:05:59.519Z,84.10
2022-08-17T10:08:35.538Z,85.60
2022-08-17T10:11:18.529Z,89.50
2022-08-17T10:13:53.412Z,88.00
2022-08-17T10:16:28.917Z,86.10
2022-08-17T10:19:03.873Z,90.60
2022-08-17T10:21:45.537Z,83.60
2022-08-17T10:24:33.164Z,82.20
2022-08-17T10:27:00.025Z,77.70
2022-08-17T10:29:29.118Z,80.70
2022-08-17T10:32:04.245Z,78.20
2022-08-17T10:35:02.276Z,85.00
2022-08-17T10:37:55.025Z,88.60
2022-08-17T10:40:36.821Z,80.10
2022-08-17T10:43:12.079Z,80.40
2022-08-17T10:45:49.304Z,74.10
2022-08-17T10:48:37.977Z,85.40
2022-08-17T10:51:09.861Z,88.40
2022-08-17T10:54:01.912Z,73.60
2022-08-17T10:56:46.837Z,79.30
2022-08-17T10:59:10.698Z,73.80
2022-08-17T11:02:14.010Z,81.50
2022-08-17T11:05:11.310Z,81.00
2022-08-17T11:07:54.003Z,74.20
2022-08-17T11:10:51.922Z,76.70
2022-08-17T11:13:32.439Z,73.80
2022-08-17T11:16:12.475Z,71.00
2022-08-17T11:19:11.945Z,81.50
2022-08-17T11:22:35.232Z,75.70
2022-08-17T11:25:15.503Z,78.60
2022-08-17T11:27:39.337Z,80.80
2022-08-17T11:30:07.862Z,70.70
2022-08-17T11:32:47.468Z,68.90
2022-08-17T11:35:35.348Z,68.90
2022-08-17T11:38:16.311Z,76.10
2022-08-17T11:41:13.400Z,69.20
2022-08-17T11:44:15.447Z,66.60
2022-08-17T11:47:23.989Z,74.70
2022-08-17T11:50:36.505Z,70.70
2022-08-17T11:53:00.300Z,62.50
2022-08-17T11:56:06.655Z,61.90
2022-08-17T11:58:38.559Z,64.10
2022-08-17T12:01:03.017Z,66.90
2022-08-17T12:03:57.062Z,68.70
2022-08-17T12:06:33.408Z,63.60
2022-08-17T12:09:03.101Z,68.50
2022-08-17T12:12:01.708Z,71.80
2022-08-17T12:14:45.016Z,73.20
2022-08-17T12:17:14.152Z,74.40
2022-08-17T12:19:49.961Z,69.00
2022-08-17T12:22:21.976Z,62.80
2022-08-17T12:24:56.788Z,66.80
2022-08-17T12:27:46.186Z,70.40
2022-08-17T12:30:21.440Z,73.00
2022-08-17T12:32:47.786Z,66.30
2022-08-17T12:35:23.207Z,72.40
2022-08-17T12:37:51.324Z,67.10
2022-08-17T12:40:23.712Z,67.70
2022-08-17T12:42:59.210Z,64.70
2022-08-17T12:45:29.438Z,63.90
2022-08-17T12:48:04.198Z,63.70
2022-08-17T12:50:30.241Z,63.60
2022-08-17T12:52:59.666Z,61.10
2022-08-17T12:55:26.390Z,62.90
2022-08-17T12:57:59.789Z,63.50
2022-08-17T13:00:30.623Z,65.00
2022-08-17T13:03:00.195Z,61.40
2022-08-17T13:05:29.074Z,64.40
2022-08-17T13:07:54.619Z,62.20
2022-08-17T13:10:30.084Z,60.90
2022-08-17T13:12:58.157Z,63.80
2022-08-17T13:15:29.706Z,69.50
2022-08-17T13:18:07.040Z,62.00
2022-08-17T13:20:31.705Z,59.70
2022-08-17T13:22:58.267Z,63.10
2022-08-17T13:25:22.041Z,60.30
2022-08-17T13:27:46.666Z,67.20
2022-08-17T13:30:14.873Z,60.60
2022-08-17T13:32:45.689Z,61.80
2022-08-17T13:35:39.214Z,65.40
2022-08-17T13:38:07.344Z,67.10
2022-08-17T13:40:54.181Z,66.70
2022-08-17T13:43:44.795Z,66.70
2022-08-17T13:46:20.452Z,62.60
2022-08-17T13:48:44.500Z,69.10
2022-08-17T13:51:30.376Z,65.40
2022-08-17T13:54:05.549Z,67.20
2022-08-17T13:56:38.762Z,63.80
2022-08-17T13:59:07.213Z,63.00
2022-08-17T14:01:36.001Z,61.40
2022-08-17T14:04:03.068Z,62.20
2022-08-17T14:06:51.799Z,64.20
2022-08-17T14:09:18.732Z,64.30
2022-08-17T14:11:46.083Z,65.90
2022-08-17T14:14:10.488Z,67.20
2022-08-17T14:16:41.863Z,65.30
2022-08-17T14:19:06.033Z,63.10
2022-08-17T14:21:29.758Z,66.30
2022-08-17T14:23:54.937Z,62.20
2022-08-17T14:26:18.944Z,66.90
2022-08-17T14:28:47.758Z,62.90
2022-08-17T14:31:20.722Z,67.30
2022-08-17T14:33:45.964Z,66.20
2022-08-17T14:36:10.101Z,62.60
2022-08-17T14:38:35.913Z,63.70
2022-08-17T14:40:59.687Z,65.70
2022-08-17T14:43:23.371Z,66.20
2022-08-17T14:45:47.107Z,60.80
2022-08-17T14:48:11.066Z,62.00
2022-08-17T14:50:37.490Z,63.10
2022-08-17T14:53:01.755Z,66.80
2022-08-17T14:55:25.696Z,67.90
2022-08-17T14:57:49.636Z,65.60
2022-08-17T15:00:15.723Z,64.90
2022-08-17T15:02:48.227Z,71.00
2022-08-17T15:05:12.028Z,71.30
2022-08-17T15:07:37.066Z,73.80
2022-08-17T15:10:02.059Z,67.40
2022-08-17T15:12:31.818Z,62.40
2022-08-17T15:14:57.136Z,64.80
2022-08-17T15:17:20.854Z,69.30
2022-08-17T15:19:44.621Z,70.20
2022-08-17T15:22:08.699Z,66.80
2022-08-17T15:24:34.195Z,64.30
2022-08-17T15:26:57.895Z,69.30
2022-08-17T15:29:22.672Z,68.90
2022-08-17T15:31:46.566Z,65.30
2022-08-17T15:34:10.356Z,66.00
2022-08-17T15:36:34.834Z,71.50
2022-08-17T15:38:59.001Z,73.60
2022-08-17T15:41:24.132Z,68.90
2022-08-17T15:43:50.909Z,70.10
2022-08-17T15:46:18.051Z,64.10
2022-08-17T15:48:44.638Z,63.10
2022-08-17T15:51:10.608Z,64.40
2022-08-17T15:53:34.353Z,72.50
2022-08-17T15:55:58.584Z,67.60
2022-08-17T15:58:32.249Z,66.30
2022-08-17T16:01:14.658Z,62.90
2022-08-17T16:03:55.130Z,68.60
2022-08-17T16:06:27.405Z,67.70
2022-08-17T16:08:51.577Z,72.50
2022-08-17T16:11:18.616Z,68.70
2022-08-17T16:13:47.297Z,66.90
2022-08-17T16:16:18.712Z,66.30
2022-08-17T16:18:43.101Z,67.10
2022-08-17T16:21:29.680Z,65.20
2022-08-17T16:23:58.375Z,65.60
2022-08-17T16:26:22.972Z,69.70
2022-08-17T16:28:48.378Z,68.20
2022-08-17T16:31:12.615Z,66.30
2022-08-17T16:33:37.670Z,70.70
2022-08-17T16:36:01.550Z,71.00
2022-08-17T16:38:25.357Z,72.90
2022-08-17T16:40:49.088Z,67.90
2022-08-17T16:43:12.824Z,71.20
2022-08-17T16:45:40.720Z,69.80
2022-08-17T16:48:05.623Z,70.50
2022-08-17T16:50:29.324Z,72.30
2022-08-17T16:52:53.410Z,75.00
2022-08-17T16:55:20.486Z,73.60
2022-08-17T16:57:47.232Z,73.50
2022-08-17T17:00:18.063Z,77.10
2022-08-17T17:02:47.441Z,75.40
2022-08-17T17:05:26.918Z,77.50
2022-08-17T17:08:03.543Z,79.30
2022-08-17T17:10:34.544Z,78.00
2022-08-17T17:13:03.708Z,79.80
2022-08-17T17:15:37.485Z,80.60
2022-08-17T17:18:07.818Z,81.20
2022-08-17T17:20:40.141Z,85.50
2022-08-17T17:23:09.531Z,82.60
2022-08-17T17:25:45.348Z,81.80
2022-08-17T17:28:25.007Z,83.30
2022-08-17T17:31:07.533Z,83.80
2022-08-17T17:33:41.538Z,83.50
2022-08-17T17:36:13.768Z,84.90
2022-08-17T17:38:47.124Z,83.20
2022-08-17T17:41:25.361Z,84.10
2022-08-17T17:43:54.046Z,82.90
2022-08-17T17:46:28.033Z,85.00
2022-08-17T17:48:54.141Z,85.00
2022-08-17T17:51:35.151Z,85.30
2022-08-17T17:54:24.205Z,86.60
2022-08-17T17:57:04.952Z,86.20
2022-08-17T17:59:44.044Z,87.70
2022-08-17T18:02:37.027Z,87.30
2022-08-17T18:05:12.837Z,87.30
2022-08-17T18:07:44.694Z,88.10
2022-08-17T18:10:29.462Z,87.30
2022-08-17T18:13:05.509Z,88.60
2022-08-17T18:15:34.917Z,86.80
2022-08-17T18:18:38.583Z,88.20
2022-08-17T18:21:09.080Z,88.90
2022-08-17T18:23:33.538Z,89.80
2022-08-17T18:25:58.767Z,89.40
2022-08-17T18:28:27.943Z,89.80
2022-08-17T18:31:11.832Z,90.60
2022-08-17T18:33:38.898Z,90.80
2022-08-17T18:36:04.300Z,91.40
2022-08-17T18:38:33.839Z,91.50
2022-08-17T18:41:20.516Z,91.90
2022-08-17T18:43:53.668Z,91.70
2022-08-17T18:46:29.638Z,92.50
2022-08-17T18:48:58.950Z,93.00
2022-08-17T18:51:40.538Z,92.50
2022-08-17T18:54:21.622Z,92.20
2022-08-17T18:56:52.044Z,93.30
2022-08-17T18:59:39.440Z,93.40
2022-08-17T19:02:43.382Z,93.60
2022-08-17T19:05:13.641Z,93.90
2022-08-17T19:07:42.756Z,93.90
2022-08-17T19:10:24.640Z,94.20
2022-08-17T19:12:55.099Z,94.50
2022-08-17T19:15:31.880Z,95.10
2022-08-17T19:18:00.872Z,95.00
2022-08-17T19:20:32.081Z,95.10
2022-08-17T19:23:08.396Z,95.40
2022-08-17T19:25:36.115Z,95.90
2022-08-17T19:28:21.930Z,95.80
2022-08-17T19:30:46.589Z,96.10
2022-08-17T19:33:10.680Z,96.20
2022-08-17T19:35:44.881Z,96.40
2022-08-17T19:38:23.480Z,96.50
2022-08-17T19:41:02.188Z,96.80
2022-08-17T19:43:48.101Z,97.10
2022-08-17T19:46:26.163Z,97.10
2022-08-17T19:49:05.148Z,97.50
2022-08-17T19:51:40.661Z,97.60
2022-08-17T19:54:22.869Z,97.30
2022-08-17T19:56:57.112Z,97.80
2022-08-17T19:59:36.378Z,98.10
2022-08-17T20:02:09.993Z,98.20
2022-08-17T20:04:42.540Z,98.30
2022-08-17T20:07:12.268Z,98.50
2022-08-17T20:09:42.755Z,98.40
2022-08-17T20:12:11.885Z,98.30
2022-08-17T20:14:55.001Z,98.20
2022-08-17T20:17:20.278Z,98.80
2022-08-17T20:19:55.513Z,99.10
2022-08-17T20:22:26.563Z,98.80
2022-08-17T20:25:01.335Z,98.50
2022-08-17T20:27:31.925Z,99.20
2022-08-17T20:30:34.238Z,99.10
2022-08-17T20:32:59.795Z,99.20
2022-08-17T20:35:27.477Z,98.60
2022-08-17T20:37:59.886Z,99.10
2022-08-17T20:40:35.904Z,99.90
2022-08-17T20:43:01.216Z,99.50
2022-08-17T20:46:05.631Z,99.30
2022-08-17T20:48:38.787Z,99.10
2022-08-17T20:51:27.281Z,99.20
2022-08-17T20:54:34.500Z,98.40
2022-08-17T20:57:01.563Z,98.80
2022-08-17T21:00:01.430Z,99.30
2022-08-17T21:02:28.088Z,99.50
2022-08-17T21:05:30.234Z,99.70
2022-08-17T21:07:59.108Z,99.70
2022-08-17T21:10:38.165Z,99.90
2022-08-17T21:13:33.131Z,99.90
2022-08-17T21:16:02.407Z,99.90
2022-08-17T21:18:38.608Z,99.90
2022-08-17T21:21:17.903Z,99.90
2022-08-17T21:24:07.552Z,99.90
2022-08-17T21:26:50.075Z,99.90
2022-08-17T21:29:31.730Z,99.90
2022-08-17T21:32:19.031Z,99.90
2022-08-17T21:34:46.204Z,99.90
2022-08-17T21:37:34.946Z,99.90
2022-08-17T21:40:02.644Z,99.90
2022-08-17T21:42:30.272Z,99.90
2022-08-17T21:45:01.125Z,99.90
2022-08-17T21:47:27.873Z,99.90
2022-08-17T21:49:52.404Z,99.90
2022-08-17T21:52:18.858Z,99.90
2022-08-17T21:54:50.411Z,99.90
2022-08-17T21:57:20.984Z,99.90
2022-08-17T21:59:44.936Z,99.90
2022-08-17T22:02:19.330Z,99.90
2022-08-17T22:04:44.131Z,99.90
2022-08-17T22:07:12.426Z,99.90
2022-08-17T22:09:43.962Z,99.90
2022-08-17T22:12:11.404Z,99.90
2022-08-17T22:14:52.553Z,99.90
2022-08-17T22:17:23.325Z,99.90
2022-08-17T22:19:52.185Z,99.90
2022-08-17T22:23:00.068Z,99.90
2022-08-17T22:25:25.060Z,99.90
2022-08-17T22:27:56.476Z,99.90
2022-08-17T22:30:32.128Z,99.90
2022-08-17T22:32:57.689Z,99.90
2022-08-17T22:35:38.884Z,99.90
2022-08-17T22:38:32.646Z,99.90
2022-08-17T22:41:15.282Z,99.90
2022-08-17T22:43:43.089Z,99.90
2022-08-17T22:46:10.601Z,99.90
2022-08-17T22:48:36.304Z,99.90
2022-08-17T22:51:12.344Z,99.90
2022-08-17T22:53:55.836Z,99.90
2022-08-17T22:56:42.028Z,99.90
2022-08-17T22:59:23.544Z,99.90
2022-08-17T23:02:12.743Z,99.90
2022-08-17T23:04:40.872Z,99.90
2022-08-17T23:07:05.508Z,99.90
2022-08-17T23:09:29.967Z,99.90
2022-08-17T23:11:58.875Z,99.90
2022-08-17T23:14:23.220Z,99.90
2022-08-17T23:16:46.998Z,99.90
2022-08-17T23:19:10.961Z,99.90
2022-08-17T23:21:37.239Z,99.90
2022-08-17T23:24:01.267Z,99.90
2022-08-17T23:26:27.810Z,99.90
2022-08-17T23:28:51.767Z,99.90
2022-08-17T23:31:18.767Z,99.90
2022-08-17T23:33:48.340Z,99.90
2022-08-17T23:36:16.964Z,99.90
2022-08-17T23:38:43.587Z,99.90
2022-08-17T23:41:13.741Z,99.90
2022-08-17T23:43:37.479Z,99.90
2022-08-17T23:46:04.088Z,99.90
2022-08-17T23:48:35.574Z,99.90
2022-08-17T23:51:04.083Z,99.90
2022-08-17T23:53:37.464Z,99.90
2022-08-17T23:56:06.892Z,99.90
2022-08-17T23:58:34.271Z,99.90
